Time;durP1;ratioP1;P1;durP2;ratioP2;P2;SDS_P1;SDS_P2;PMS_P1;PMS_P2;Temp;Humidity;BMP_temperature;BMP_pressure;BME280_temperature;BME280_humidity;BME280_pressure;Samples;Min_cycle;Max_cycle;Signal;HPM_P1;HPM_P2
2023/10/10 00:02:28;;;;;;;5.53;2.60;;;;;;;23.86;39.51;99962.78;4456300;32;33270;-69
2023/10/10 00:05:03;;;;;;;4.15;2.25;;;;;;;23.85;39.54;99972.88;4467895;32;33860;-73
2023/10/10 00:07:34;;;;;;;5.72;2.58;;;;;;;23.86;39.54;99968.25;4455649;32;32793;-68
2023/10/10 00:10:04;;;;;;;5.82;2.78;;;;;;;23.86;39.54;99968.25;4467713;32;34653;-72
2023/10/10 00:12:35;;;;;;;5.60;2.50;;;;;;;23.87;39.55;99969.91;4468901;32;33569;-73
2023/10/10 00:15:05;;;;;;;9.20;1.83;;;;;;;23.86;39.60;99971.78;4468050;32;33573;-73
2023/10/10 00:17:37;;;;;;;6.57;2.17;;;;;;;23.84;39.63;99952.12;4467735;32;33717;-72
2023/10/10 00:20:25;;;;;;;5.30;2.62;;;;;;;23.86;39.60;99958.16;4470275;32;33718;-73
2023/10/10 00:22:58;;;;;;;5.80;2.30;;;;;;;23.85;39.59;99959.25;4472897;32;34794;-72
2023/10/10 00:25:30;;;;;;;5.28;2.75;;;;;;;23.85;39.59;99963.84;4484557;32;33954;-71
2023/10/10 00:28:18;;;;;;;4.62;2.37;;;;;;;23.85;39.55;99961.13;4458390;32;33453;-68
2023/10/10 00:30:46;;;;;;;6.03;2.70;;;;;;;23.85;39.53;99967.41;4484569;32;34342;-69
2023/10/10 00:33:16;;;;;;;6.50;2.25;;;;;;;23.84;39.54;99960.31;4457639;32;34787;-71
2023/10/10 00:35:44;;;;;;;;;;;;;;;23.84;39.54;99973.94;4457884;32;34047;-72
2023/10/10 00:38:19;;;;;;;4.45;2.20;;;;;;;23.96;39.38;99975.91;4470570;32;33421;-69
2023/10/10 00:40:47;;;;;;;7.22;2.47;;;;;;;23.88;39.40;99975.16;4457996;32;33762;-72
2023/10/10 00:43:16;;;;;;;4.30;2.40;;;;;;;23.86;39.47;99970.97;4470452;32;33497;-72
2023/10/10 00:45:47;;;;;;;5.15;2.10;;;;;;;23.84;39.55;99957.56;4470263;32;33838;-70
2023/10/10 00:48:17;;;;;;;8.52;2.80;;;;;;;23.84;39.56;99967.66;4484079;32;33479;-69
2023/10/10 00:51:05;;;;;;;5.10;2.37;;;;;;;23.84;39.55;99962.19;4458753;32;34634;-70
2023/10/10 00:53:33;;;;;;;5.55;2.60;;;;;;;23.83;39.50;99969.53;4484266;32;34904;-69
2023/10/10 00:56:05;;;;;;;4.97;2.58;;;;;;;23.85;39.41;99966.59;4444678;32;32813;-68
2023/10/10 00:58:38;;;;;;;5.35;2.42;;;;;;;23.85;39.41;99972.88;4445621;32;32890;-68
2023/10/10 01:01:14;;;;;;;6.00;2.37;;;;;;;23.84;39.39;99976.66;4458050;32;34058;-69
2023/10/10 01:03:44;;;;;;;6.60;2.33;;;;;;;23.84;39.40;99984.81;4470952;32;34800;-69
2023/10/10 01:06:39;;;;;;;5.00;2.50;;;;;;;23.85;39.42;99982.94;4445113;32;33972;-70
2023/10/10 01:09:04;;;;;;;4.35;2.20;;;;;;;23.84;39.46;99990.28;4472344;32;33332;-70
2023/10/10 01:11:31;;;;;;;5.03;2.15;;;;;;;23.84;39.42;99987.56;4484110;32;34319;-71
2023/10/10 01:14:00;;;;;;;5.43;2.75;;;;;;;23.84;39.44;99994.91;4470148;32;34172;-68
2023/10/10 01:16:28;;;;;;;5.50;2.40;;;;;;;23.82;39.43;99992.38;4469753;32;32914;-71
2023/10/10 01:18:59;;;;;;;7.15;2.15;;;;;;;23.84;39.37;99995.72;4469680;32;32360;-69
2023/10/10 01:21:31;;;;;;;6.10;2.62;;;;;;;23.83;39.33;100004.13;4470241;32;33931;-69
2023/10/10 01:24:11;;;;;;;5.32;2.25;;;;;;;23.84;39.29;99998.44;4470570;32;34900;-72
2023/10/10 01:26:44;;;;;;;4.15;2.20;;;;;;;23.84;39.28;99997.62;4471512;32;34490;-72
2023/10/10 01:29:25;;;;;;;6.45;2.62;;;;;;;23.83;39.29;100009.59;4482733;32;33983;-69
2023/10/10 01:31:53;;;;;;;4.85;2.15;;;;;;;23.83;39.24;100017.75;4482933;32;34577;-70
2023/10/10 01:37:22;;;;;;;5.05;2.72;;;;;;;23.82;39.28;100016.91;4471365;32;33070;-71
2023/10/10 01:40:37;;;;;;;4.45;2.28;;;;;;;23.82;39.30;100011.44;4484270;31;34431;-69
2023/10/10 01:42:51;;;;;;;4.85;2.65;;;;;;;23.82;39.30;100010.63;4477416;32;32796;-71
2023/10/10 01:45:20;;;;;;;3.35;1.62;;;;;;;23.82;39.25;100011.44;4470343;32;34128;-71
2023/10/10 01:47:57;;;;;;;6.07;2.30;;;;;;;23.82;39.29;100010.63;4481393;32;33246;-72
2023/10/10 01:50:26;;;;;;;5.28;2.45;;;;;;;23.82;39.28;100013.34;4483661;32;34139;-72
2023/10/10 01:52:55;;;;;;;4.75;2.10;;;;;;;23.82;39.27;100010.63;4482072;32;34304;-71
2023/10/10 01:55:25;;;;;;;4.70;2.40;;;;;;;23.84;39.26;100011.25;4469745;32;32795;-72
2023/10/10 01:57:53;;;;;;;6.10;2.50;;;;;;;23.82;39.29;100003.28;4481816;32;33860;-69
2023/10/10 02:02:56;;;;;;;6.60;2.35;;;;;;;23.82;39.33;100010.63;4484490;32;33876;-72
2023/10/10 02:08:03;;;;;;;4.05;2.28;;;;;;;23.82;39.54;100010.63;4459678;32;34297;-73
2023/10/10 02:10:32;;;;;;;6.03;2.25;;;;;;;23.82;39.65;100014.19;4458303;32;32355;-72
2023/10/10 02:13:00;;;;;;;8.48;2.62;;;;;;;23.84;39.71;100012.06;4485607;32;33867;-70
2023/10/10 02:15:36;;;;;;;3.70;1.98;;;;;;;23.84;39.75;100011.25;4485527;32;33897;-71
2023/10/10 02:18:06;;;;;;;4.85;2.37;;;;;;;23.83;39.72;100002.25;4484410;31;34305;-72
2023/10/10 02:20:50;;;;;;;4.20;2.15;;;;;;;23.85;39.74;100002.00;4471190;32;32847;-73
2023/10/10 02:23:34;;;;;;;8.10;1.92;;;;;;;23.86;39.71;100006.41;4468227;32;33563;-73
2023/10/10 02:26:14;;;;;;;4.57;2.05;;;;;;;23.85;39.71;100004.72;4484535;32;33858;-69
2023/10/10 02:28:48;;;;;;;3.85;2.10;;;;;;;23.85;39.75;100010.19;4472713;32;33109;-69
2023/10/10 02:31:18;;;;;;;3.60;2.08;;;;;;;23.85;39.77;100018.34;4485124;32;34128;-71
2023/10/10 02:33:49;;;;;;;4.18;2.10;;;;;;;23.84;39.82;100022.97;4471347;32;33911;-70
2023/10/10 02:36:30;;;;;;;5.55;1.75;;;;;;;23.85;39.79;100016.47;4483961;32;33046;-73
2023/10/10 02:39:18;;;;;;;3.53;2.10;;;;;;;23.86;39.77;100014.56;4484188;32;33560;-70
2023/10/10 02:41:49;;;;;;;4.90;2.12;;;;;;;23.84;39.72;100011.25;4471933;32;32946;-73
2023/10/10 02:44:46;;;;;;;3.58;2.12;;;;;;;23.84;39.63;100013.97;4458940;32;33163;-73
2023/10/10 02:47:06;;;;;;;5.47;2.33;;;;;;;23.83;39.61;100017.75;4473794;32;33809;-73
2023/10/10 02:49:37;;;;;;;8.50;2.42;;;;;;;23.84;39.48;100022.97;4483725;32;34111;-70
2023/10/10 02:52:14;;;;;;;4.53;2.35;;;;;;;23.83;39.50;100025.94;4485027;32;33993;-71
2023/10/10 02:54:53;;;;;;;3.10;1.90;;;;;;;23.82;39.49;100022.34;4472127;32;33900;-70
2023/10/10 02:59:59;;;;;;;3.67;1.87;;;;;;;23.91;39.35;100010.09;4485093;32;34916;-69
2023/10/10 03:02:40;;;;;;;6.90;2.28;;;;;;;23.82;39.48;100025.06;4471511;32;32959;-69
2023/10/10 03:05:15;;;;;;;8.75;1.98;;;;;;;23.82;39.55;100037.88;4471313;32;33586;-70
2023/10/10 03:07:51;;;;;;;5.68;1.95;;;;;;;23.80;39.56;100024.47;4458656;32;32837;-68
2023/10/10 03:10:23;;;;;;;5.12;2.25;;;;;;;23.80;39.60;100031.81;4470683;32;32817;-73
2023/10/10 03:12:52;;;;;;;4.68;2.40;;;;;;;23.80;39.58;100029.09;4481483;32;33407;-70
2023/10/10 03:25:48;;;;;;;4.53;1.98;;;;;;;23.79;39.59;100032.88;4483982;32;34791;-69
2023/10/10 03:31:22;;;;;;;4.93;2.08;;;;;;;23.79;39.58;100038.34;4483995;32;33623;-70
2023/10/10 03:37:04;;;;;;;4.75;2.10;;;;;;;23.79;39.59;100036.44;4472930;32;34587;-69
2023/10/10 03:39:43;;;;;;;4.32;1.87;;;;;;;23.78;39.59;100042.97;4484062;32;34836;-69
2023/10/10 05:25:23;;;;;;;5.00;2.60;;;;;;;23.64;39.15;100104.87;4483572;32;34171;-68
2023/10/10 05:27:52;;;;;;;4.90;2.42;;;;;;;23.64;39.15;100104.87;4479339;32;33823;-67
2023/10/10 05:30:39;;;;;;;5.70;2.65;;;;;;;23.64;39.16;100114.91;4462748;32;34851;-67
2023/10/10 05:33:07;;;;;;;5.05;2.50;;;;;;;23.64;39.15;100117.66;4469457;32;33899;-68
2023/10/10 05:35:43;;;;;;;4.12;2.00;;;;;;;23.63;39.15;100119.50;4482224;32;33022;-67
2023/10/10 05:38:12;;;;;;;6.97;2.95;;;;;;;23.62;39.14;100126.00;4482556;32;34789;-67
2023/10/10 05:40:39;;;;;;;5.95;2.45;;;;;;;23.63;39.10;100130.41;4482626;32;34164;-67
2023/10/10 05:43:09;;;;;;;6.75;2.87;;;;;;;23.63;39.10;100126.84;4469560;32;33608;-68
2023/10/10 05:45:37;;;;;;;4.72;2.35;;;;;;;23.62;39.08;100128.75;4482671;32;33431;-68
2023/10/10 05:48:05;;;;;;;4.53;2.25;;;;;;;23.63;39.04;100135.03;4471040;32;33950;-67
2023/10/10 05:50:33;;;;;;;6.32;2.60;;;;;;;23.62;39.05;100142.34;4469298;32;33481;-66
2023/10/10 05:53:01;;;;;;;4.60;2.42;;;;;;;23.61;39.04;100143.41;4456412;32;32583;-67
2023/10/10 05:55:29;;;;;;;5.72;2.33;;;;;;;23.61;39.03;100148.03;4456804;32;33707;-69
2023/10/10 05:57:57;;;;;;;5.68;2.55;;;;;;;23.62;39.00;100141.53;4469217;32;33936;-68
2023/10/10 06:00:27;;;;;;;5.50;2.72;;;;;;;23.61;39.00;100153.47;4483510;32;34769;-68
2023/10/10 06:02:55;;;;;;;4.72;2.42;;;;;;;23.61;39.00;100150.75;4456779;32;34597;-68
2023/10/10 06:05:22;;;;;;;6.30;2.60;;;;;;;23.60;38.97;100155.37;4469304;32;34542;-66
2023/10/10 06:07:50;;;;;;;4.50;2.50;;;;;;;23.60;38.97;100151.81;4483674;32;33473;-67
2023/10/10 06:10:18;;;;;;;5.57;2.50;;;;;;;23.59;38.95;100153.69;4483340;32;33612;-66
2023/10/10 06:12:48;;;;;;;5.10;2.42;;;;;;;23.59;38.97;100156.41;4469344;32;34052;-67
2023/10/10 06:15:19;;;;;;;5.70;2.42;;;;;;;23.58;38.96;100159.34;4483272;32;33327;-66
2023/10/10 06:17:57;;;;;;;6.57;2.72;;;;;;;23.60;38.94;100162.72;4443371;32;32797;-67
2023/10/10 06:20:26;;;;;;;4.82;2.40;;;;;;;23.59;38.94;100166.47;4445558;32;32987;-67
2023/10/10 06:22:55;;;;;;;5.10;2.33;;;;;;;23.58;38.91;100165.63;4483145;32;33831;-66
2023/10/10 06:25:23;;;;;;;4.35;2.28;;;;;;;23.59;38.90;100172.75;4482006;32;33988;-67
2023/10/10 06:28:00;;;;;;;7.68;2.65;;;;;;;23.57;38.93;100177.59;4481976;32;33551;-66
2023/10/10 06:30:28;;;;;;;4.32;2.20;;;;;;;23.59;38.91;100185.53;4482920;32;33949;-67
2023/10/10 06:33:14;;;;;;;4.72;2.40;;;;;;;23.58;38.88;100181.16;4456036;32;34048;-67
2023/10/10 06:35:52;;;;;;;3.83;1.90;;;;;;;23.57;38.87;100180.31;4481745;32;32929;-66
2023/10/10 06:38:24;;;;;;;4.18;2.40;;;;;;;23.57;38.86;100180.31;4483269;32;33548;-67
2023/10/10 06:40:55;;;;;;;6.30;2.70;;;;;;;23.57;38.85;100172.16;4482828;32;33500;-67
2023/10/10 06:43:24;;;;;;;6.35;2.30;;;;;;;23.56;38.86;100177.81;4481241;32;34789;-65
2023/10/10 06:45:57;;;;;;;5.10;2.45;;;;;;;23.56;38.86;100184.09;4482772;32;33838;-66
2023/10/10 06:48:40;;;;;;;5.03;2.30;;;;;;;23.56;38.86;100183.28;4467975;32;32856;-67
2023/10/10 06:51:09;;;;;;;5.35;2.45;;;;;;;23.55;38.85;100190.59;4475523;32;33537;-69
2023/10/10 06:53:37;;;;;;;4.97;2.50;;;;;;;23.55;38.83;100198.78;4457686;32;33710;-69
2023/10/10 06:56:14;;;;;;;5.78;2.28;;;;;;;23.55;38.84;100204.22;4478994;32;33259;-69
2023/10/10 06:58:46;;;;;;;4.60;2.08;;;;;;;23.53;38.87;100209.03;4455958;32;34043;-69
2023/10/10 07:01:19;;;;;;;5.78;2.50;;;;;;;23.54;38.86;100216.16;4469170;32;33905;-69
2023/10/10 07:03:54;;;;;;;6.80;2.75;;;;;;;23.54;38.85;100216.16;4460762;32;34179;-69
2023/10/10 07:06:22;;;;;;;5.57;2.30;;;;;;;23.54;38.86;100204.44;4467880;32;32629;-69
2023/10/10 07:09:14;;;;;;;5.25;2.60;;;;;;;23.54;38.86;100207.97;4480414;32;34268;-68
2023/10/10 07:11:41;;;;;;;5.53;2.60;;;;;;;23.53;38.87;100203.59;4468217;32;33704;-69
2023/10/10 07:14:10;;;;;;;5.45;2.50;;;;;;;23.54;38.86;100197.09;4480806;31;33938;-69
2023/10/10 07:16:44;;;;;;;6.20;2.00;;;;;;;23.53;38.86;100206.31;4455202;32;32829;-68
2023/10/10 07:19:30;;;;;;;5.50;2.70;;;;;;;23.55;38.86;100212.41;4472542;32;34378;-68
2023/10/10 07:21:59;;;;;;;5.62;2.28;;;;;;;23.55;38.87;100225.16;4463730;32;33181;-68
2023/10/10 07:24:40;;;;;;;5.93;2.58;;;;;;;23.54;38.88;100223.50;4468088;32;33662;-69
2023/10/10 07:27:11;;;;;;;6.22;2.50;;;;;;;23.55;38.87;100234.19;4468802;32;33461;-69
2023/10/10 07:32:17;;;;;;;4.72;2.03;;;;;;;23.55;38.87;100230.59;4469014;32;33905;-68
2023/10/10 07:34:52;;;;;;;4.60;2.37;;;;;;;23.54;38.87;100229.78;4479801;32;33991;-68
2023/10/10 07:37:22;;;;;;;6.85;2.50;;;;;;;23.55;38.87;100227.88;4471499;32;33614;-68
2023/10/10 07:39:57;;;;;;;3.83;2.20;;;;;;;23.55;38.87;100231.47;4469209;32;33695;-69
2023/10/10 07:42:29;;;;;;;4.82;2.22;;;;;;;23.55;38.89;100230.59;4469228;32;34717;-73
2023/10/10 07:44:57;;;;;;;5.40;2.40;;;;;;;23.55;38.90;100231.47;4445634;32;33274;-70
2023/10/10 07:47:29;;;;;;;5.03;2.22;;;;;;;23.54;38.90;100229.78;4467781;32;33241;-73
2023/10/10 07:50:00;;;;;;;5.95;2.60;;;;;;;23.54;38.90;100229.78;4474223;32;33960;-71
2023/10/10 07:52:27;;;;;;;4.60;2.00;;;;;;;23.55;38.90;100230.59;4470476;32;33617;-68
2023/10/10 07:55:03;;;;;;;4.20;2.00;;;;;;;23.55;38.89;100230.59;4468663;32;32790;-72
2023/10/10 07:57:55;;;;;;;5.32;2.28;;;;;;;23.56;38.89;100213.22;4470765;32;33120;-72
2023/10/10 08:00:24;;;;;;;5.18;2.35;;;;;;;23.54;38.90;100221.59;4468509;32;33156;-70
2023/10/10 08:02:53;;;;;;;4.37;2.25;;;;;;;23.55;38.89;100227.88;4461290;32;33917;-72
2023/10/10 08:05:22;;;;;;;4.03;1.73;;;;;;;23.55;38.90;100225.16;4469117;32;33265;-73
2023/10/10 08:07:52;;;;;;;;;;;;;;;23.55;38.89;100228.75;4467648;32;33298;-73
2023/10/10 08:13:17;;;;;;;3.92;2.15;;;;;;;23.56;38.86;100230.41;4477292;31;34537;-72
2023/10/10 08:23:32;;;;;;;4.95;2.25;;;;;;;23.53;38.99;100239.00;4478032;32;33602;-71
2023/10/10 08:25:59;;;;;;;3.97;2.20;;;;;;;23.53;39.00;100232.72;4483093;32;33935;-71
2023/10/10 08:28:27;;;;;;;4.25;2.20;;;;;;;23.52;38.98;100234.63;4483125;32;33669;-70
2023/10/10 08:30:55;;;;;;;5.20;2.50;;;;;;;23.54;38.95;100237.09;4483801;32;33864;-72
2023/10/10 08:33:26;;;;;;;3.08;1.77;;;;;;;23.53;38.96;100249.91;4469340;32;34009;-71
2023/10/10 08:35:54;;;;;;;4.97;2.35;;;;;;;23.54;38.96;100251.56;4468664;32;33760;-70
2023/10/10 08:38:21;;;;;;;3.35;1.80;;;;;;;23.55;38.94;100257.84;4474506;32;31693;-73
2023/10/10 08:40:58;;;;;;;4.07;2.28;;;;;;;23.53;38.95;100251.78;4468395;32;33471;-71
2023/10/10 08:43:28;;;;;;;4.70;2.10;;;;;;;23.53;38.97;100247.19;4455509;32;33961;-72
2023/10/10 08:45:57;;;;;;;5.20;2.50;;;;;;;23.55;38.96;100260.56;4481586;32;33847;-72
2023/10/10 08:48:26;;;;;;;4.15;2.30;;;;;;;23.54;38.95;100267.91;4481719;32;34086;-70
2023/10/10 08:50:55;;;;;;;4.12;1.95;;;;;;;23.53;38.97;100254.50;4442075;32;34759;-70
2023/10/10 08:53:22;;;;;;;3.60;1.98;;;;;;;23.55;38.95;100263.28;4467100;32;33694;-72
2023/10/10 08:55:56;;;;;;;5.80;2.28;;;;;;;23.54;38.97;100258.91;4454397;32;33835;-73
2023/10/10 08:58:24;;;;;;;4.15;2.35;;;;;;;23.53;38.97;100258.06;4467844;32;33411;-73
2023/10/10 09:00:53;;;;;;;4.47;1.92;;;;;;;23.54;38.95;100261.63;4457355;32;33018;-73
2023/10/10 09:03:21;;;;;;;4.32;2.12;;;;;;;23.54;38.96;100262.47;4468659;32;33253;-72
2023/10/10 09:05:50;;;;;;;5.45;2.50;;;;;;;23.55;38.94;100264.16;4454318;32;33409;-72
2023/10/10 09:08:26;;;;;;;6.40;2.45;;;;;;;23.55;38.96;100264.16;4467571;32;33398;-72
2023/10/10 09:10:58;;;;;;;4.75;1.87;;;;;;;23.53;38.97;100263.53;4484359;32;33310;-72
2023/10/10 09:13:26;;;;;;;4.25;2.20;;;;;;;23.54;38.97;100278.81;4469561;32;33882;-73
2023/10/10 09:15:55;;;;;;;3.67;2.17;;;;;;;23.53;38.97;100282.59;4469994;32;34806;-73
2023/10/10 09:18:23;;;;;;;4.10;2.10;;;;;;;23.53;38.97;100282.59;4481677;32;32848;-72
2023/10/10 09:20:53;;;;;;;3.72;1.92;;;;;;;23.54;38.98;100281.53;4469483;32;33545;-73
2023/10/10 09:23:25;;;;;;;4.05;2.03;;;;;;;23.54;38.96;100280.69;4479385;32;33937;-72
2023/10/10 09:26:29;;;;;;;3.62;1.73;;;;;;;23.54;38.96;100288.88;4461749;32;33715;-72
2023/10/10 09:29:03;;;;;;;4.70;2.03;;;;;;;23.53;38.95;100285.31;4468056;32;34169;-72
2023/10/10 09:31:31;;;;;;;4.75;2.00;;;;;;;23.54;38.96;100280.69;4454858;32;34109;-73
2023/10/10 09:34:03;;;;;;;4.20;2.37;;;;;;;23.53;38.98;100288.03;4453898;32;33043;-72
2023/10/10 09:36:39;;;;;;;4.03;1.92;;;;;;;23.52;38.99;100286.38;4481644;32;34423;-73
2023/10/10 09:39:09;;;;;;;3.80;2.10;;;;;;;23.53;38.99;100281.75;4468437;32;33000;-70
2023/10/10 09:42:00;;;;;;;3.30;2.00;;;;;;;23.52;38.98;100278.19;4483676;31;32763;-72
2023/10/10 09:47:17;;;;;;;4.07;2.10;;;;;;;23.54;38.98;100295.16;4466480;32;32547;-73
2023/10/10 09:57:44;;;;;;;3.03;1.85;;;;;;;23.53;39.02;100293.47;4479134;32;33808;-71
2023/10/10 10:00:13;;;;;;;4.62;2.15;;;;;;;23.49;39.04;100292.22;4466331;32;33935;-69
2023/10/10 10:02:57;;;;;;;3.55;1.80;;;;;;;23.51;39.03;100287.44;4473165;32;34670;-69
2023/10/10 10:05:28;;;;;;;5.12;2.00;;;;;;;23.52;39.03;100278.19;4469714;32;34841;-68
2023/10/10 10:08:13;;;;;;;4.57;2.15;;;;;;;23.51;39.06;100279.25;4482222;32;34010;-68
2023/10/10 10:10:52;;;;;;;3.05;1.70;;;;;;;23.52;39.05;100277.37;4467548;32;32938;-69
2023/10/10 10:13:33;;;;;;;4.22;2.17;;;;;;;23.53;39.04;100285.31;4466552;32;34261;-69
2023/10/10 10:16:34;;;;;;;3.97;2.15;;;;;;;23.51;39.06;100284.69;4456215;32;33747;-70
2023/10/10 10:19:20;;;;;;;5.47;2.10;;;;;;;23.53;39.04;100290.75;4466376;32;33949;-69
2023/10/10 10:21:57;;;;;;;4.25;1.80;;;;;;;23.50;39.09;100288.47;4472308;32;33423;-68
2023/10/10 10:24:48;;;;;;;3.72;1.80;;;;;;;23.51;39.08;100284.69;4484347;32;33706;-70
2023/10/10 10:27:24;;;;;;;3.70;1.85;;;;;;;23.54;39.06;100284.25;4474790;32;34011;-70
2023/10/10 10:29:56;;;;;;;4.03;2.00;;;;;;;23.51;39.08;100284.69;4472663;32;33121;-70
2023/10/10 10:32:24;;;;;;;5.10;2.00;;;;;;;23.50;39.11;100282.16;4458362;32;32350;-71
2023/10/10 10:34:56;;;;;;;3.95;2.08;;;;;;;23.51;39.11;100286.59;4483969;32;34416;-71
2023/10/10 10:37:28;;;;;;;3.60;2.03;;;;;;;23.51;39.08;100284.69;4484232;32;33758;-72
2023/10/10 10:42:50;;;;;;;3.22;1.98;;;;;;;23.50;39.04;100285.75;4484237;32;33419;-71
2023/10/10 10:45:34;;;;;;;3.60;1.80;;;;;;;23.51;39.06;100289.31;4472070;32;33422;-72
2023/10/10 10:48:07;;;;;;;4.03;2.00;;;;;;;23.51;39.09;100279.25;4484043;32;33701;-72
2023/10/10 10:50:46;;;;;;;3.45;1.70;;;;;;;23.50;39.06;100288.47;4471100;32;33529;-71
2023/10/10 10:53:21;;;;;;;3.50;1.90;;;;;;;23.50;39.08;100283.03;4472368;32;34368;-71
2023/10/10 10:56:50;;;;;;;4.00;2.15;;;;;;;23.51;39.06;100284.69;4483831;32;33835;-69
2023/10/10 11:01:26;;;;;;;3.70;2.00;;;;;;;23.50;39.05;100280.31;4471973;32;32768;-72
2023/10/10 11:03:54;;;;;;;3.35;1.75;;;;;;;23.50;39.07;100293.06;4461393;32;32586;-72
2023/10/10 11:06:24;;;;;;;4.05;2.10;;;;;;;23.50;39.08;100285.75;4470871;32;33261;-72
2023/10/10 11:08:52;;;;;;;3.53;1.87;;;;;;;23.51;39.08;100283.88;4463116;32;33521;-72
2023/10/10 11:13:55;;;;;;;3.20;1.90;;;;;;;23.50;39.09;100288.47;4468213;32;33393;-70
2023/10/10 11:16:36;;;;;;;3.75;2.00;;;;;;;23.52;39.08;100288.25;4481459;32;33801;-72
2023/10/10 11:21:55;;;;;;;3.55;1.83;;;;;;;23.51;39.09;100283.88;4477295;31;33832;-71
2023/10/10 11:24:25;;;;;;;3.90;1.80;;;;;;;23.50;39.10;100285.75;4469929;32;33334;-72
2023/10/10 11:29:42;;;;;;;3.95;1.65;;;;;;;23.51;39.12;100276.53;4481675;32;33622;-73
2023/10/10 11:32:12;;;;;;;2.97;1.70;;;;;;;23.50;39.12;100283.03;4461739;32;34003;-71
2023/10/10 11:34:44;;;;;;;3.65;1.95;;;;;;;23.49;39.13;100265.00;4455418;32;34225;-72
2023/10/10 11:37:17;;;;;;;3.35;1.92;;;;;;;23.49;39.11;100262.28;4469163;32;33215;-72
2023/10/10 11:39:48;;;;;;;2.80;1.70;;;;;;;23.48;39.13;100255.16;4471200;32;34783;-71
2023/10/10 11:42:29;;;;;;;3.83;1.77;;;;;;;23.50;39.10;100254.94;4474634;32;33195;-71
2023/10/10 11:45:01;;;;;;;3.83;1.80;;;;;;;23.52;39.10;100259.12;4482992;32;33361;-72
2023/10/10 11:47:31;;;;;;;3.20;1.62;;;;;;;23.49;39.13;100258.72;4476392;32;33765;-71
2023/10/10 11:50:05;;;;;;;4.18;1.85;;;;;;;23.49;39.13;100253.28;4470749;32;34922;-72
2023/10/10 11:52:33;;;;;;;3.70;1.87;;;;;;;23.50;39.14;100255.81;4467565;32;34427;-71
2023/10/10 11:55:07;;;;;;;3.90;2.20;;;;;;;23.49;39.12;100254.09;4467827;32;34467;-68
2023/10/10 11:57:35;;;;;;;3.78;2.00;;;;;;;23.48;39.12;100247.00;4458216;32;33852;-74
2023/10/10 12:00:07;;;;;;;3.58;1.92;;;;;;;23.49;39.13;100245.94;4490531;31;33668;-71
2023/10/10 12:02:55;;;;;;;3.90;2.03;;;;;;;23.49;39.13;100237.75;4450960;32;33739;-70
2023/10/10 12:08:05;;;;;;;2.92;1.77;;;;;;;23.50;39.11;100234.00;4473779;32;34297;-70
2023/10/10 12:10:47;;;;;;;3.47;1.77;;;;;;;23.49;39.12;100226.03;4469158;32;32936;-69
2023/10/10 12:13:25;;;;;;;3.12;1.85;;;;;;;23.49;39.11;100226.87;4471971;32;33431;-69
2023/10/10 12:15:55;;;;;;;4.50;1.90;;;;;;;23.49;39.11;100234.19;4476884;32;33908;-71
2023/10/10 12:18:25;;;;;;;;;;;;;;;23.49;39.10;100226.87;4483611;31;34048;-70
2023/10/10 12:20:55;;;;;;;3.10;1.83;;;;;;;23.59;38.92;100218.22;4481478;32;35097;-68
2023/10/10 12:23:23;;;;;;;3.83;1.83;;;;;;;23.52;39.04;100222.88;4454387;32;32333;-72
2023/10/10 12:25:54;;;;;;;4.03;2.20;;;;;;;23.49;39.08;100223.31;4483242;32;33512;-72
2023/10/10 12:28:21;;;;;;;2.78;1.77;;;;;;;23.48;39.15;100219.75;4484339;32;33625;-73
2023/10/10 12:30:49;;;;;;;4.55;2.28;;;;;;;23.48;39.13;100229.81;4483408;32;33987;-71
2023/10/10 12:33:19;;;;;;;4.15;1.92;;;;;;;23.47;39.14;100234.44;4461416;32;34491;-73
2023/10/10 12:35:47;;;;;;;;;;;;;;;23.49;39.13;100231.47;4468019;32;33122;-72
2023/10/10 12:38:21;;;;;;;2.42;1.50;;;;;;;23.57;38.96;100236.69;4469018;32;33993;-73
2023/10/10 12:40:52;;;;;;;3.78;2.12;;;;;;;23.50;39.09;100234.00;4451224;32;33322;-72
2023/10/10 12:43:24;;;;;;;3.87;1.90;;;;;;;23.48;39.14;100238.00;4470309;32;34877;-73
2023/10/10 12:45:54;;;;;;;4.07;2.00;;;;;;;23.47;39.15;100228.97;4470753;32;34554;-73
2023/10/10 12:48:22;;;;;;;3.42;1.85;;;;;;;23.47;39.15;100228.16;4483146;32;34664;-72
2023/10/10 12:50:50;;;;;;;4.00;1.95;;;;;;;23.47;39.14;100220.81;4457560;32;33256;-72
2023/10/10 12:53:20;;;;;;;4.15;2.10;;;;;;;23.48;39.13;100214.31;4467397;32;34505;-69
2023/10/10 12:55:49;;;;;;;14.32;3.78;;;;;;;23.50;39.14;100217.66;4467468;32;33193;-67
2023/10/10 12:58:21;;;;;;;29.23;6.20;;;;;;;23.57;39.74;100223.06;4467554;32;34719;-66
2023/10/10 13:00:51;;;;;;;26.98;5.30;;;;;;;23.62;39.37;100215.06;4467594;32;33291;-63
2023/10/10 13:03:19;;;;;;;10.70;3.67;;;;;;;23.53;39.64;100209.03;4474268;32;33966;-60
2023/10/10 13:05:52;;;;;;;9.63;3.47;;;;;;;23.61;39.73;100218.88;4475292;32;34215;-61
2023/10/10 13:08:23;;;;;;;13.23;3.42;;;;;;;23.81;39.06;100222.34;4476409;32;33978;-62
2023/10/10 13:10:54;;;;;;;11.73;5.00;;;;;;;23.92;38.87;100216.19;4473138;32;33954;-60
2023/10/10 13:13:31;;;;;;;14.15;4.55;;;;;;;24.11;38.55;100219.84;4484057;32;34356;-62
2023/10/10 13:16:22;;;;;;;13.38;4.75;;;;;;;24.15;38.46;100212.03;4483111;32;33410;-60
2023/10/10 13:18:54;;;;;;;12.80;5.32;;;;;;;24.16;38.50;100208.28;4484001;32;33859;-60
2023/10/10 13:21:22;;;;;;;18.05;5.97;;;;;;;24.15;38.55;100203.84;4482873;32;33883;-61
2023/10/10 13:23:50;;;;;;;14.65;5.05;;;;;;;24.18;38.56;100193.34;4475615;32;32910;-60
2023/10/10 13:26:20;;;;;;;17.15;5.00;;;;;;;24.29;38.45;100193.69;4470490;32;34184;-69
2023/10/10 13:28:47;;;;;;;22.00;6.00;;;;;;;24.38;38.28;100204.09;4481969;32;33965;-60
2023/10/10 13:31:17;;;;;;;20.17;6.72;;;;;;;24.37;38.37;100202.44;4456425;32;34375;-62
2023/10/10 13:33:45;;;;;;;18.05;6.22;;;;;;;24.34;38.47;100199.28;4483476;32;34492;-74
2023/10/10 13:36:15;;;;;;;19.67;6.62;;;;;;;24.37;38.45;100198.88;4469787;32;33647;-65
2023/10/10 13:38:47;;;;;;;12.85;5.78;;;;;;;24.35;38.49;100199.09;4457351;32;33996;-62
2023/10/10 13:41:22;;;;;;;14.60;6.10;;;;;;;24.38;38.47;100201.38;4482688;32;33756;-62
2023/10/10 13:43:50;;;;;;;18.10;5.53;;;;;;;24.46;38.44;100196.72;4483914;32;35096;-63
2023/10/10 13:46:18;;;;;;;17.62;6.50;;;;;;;24.45;38.48;100195.88;4482451;32;33394;-63
2023/10/10 13:48:47;;;;;;;17.17;5.97;;;;;;;24.48;38.48;100197.31;4483170;32;33733;-63
2023/10/10 13:51:16;;;;;;;15.95;6.12;;;;;;;24.51;38.45;100194.97;4466940;32;33704;-62
2023/10/10 13:53:44;;;;;;;20.10;6.57;;;;;;;24.52;38.44;100196.66;4466592;32;34200;-61
2023/10/10 13:56:16;;;;;;;20.15;7.43;;;;;;;24.51;38.30;100192.25;4469509;32;33540;-62
2023/10/10 13:58:47;;;;;;;15.35;6.72;;;;;;;24.49;38.21;100190.81;4472010;32;33950;-60
2023/10/10 14:03:56;;;;;;;16.85;8.20;;;;;;;24.42;38.19;100196.31;4468232;32;33597;-65
2023/10/10 14:06:26;;;;;;;16.35;9.20;;;;;;;24.37;38.25;100191.53;4481013;32;33022;-61
2023/10/10 14:08:57;;;;;;;;;;;;;;;24.34;38.33;100196.56;4479505;32;33441;-62
2023/10/10 14:11:25;;;;;;;21.05;8.80;;;;;;;24.39;38.25;100194.91;4481681;31;34078;-73
2023/10/10 14:13:53;;;;;;;16.73;8.30;;;;;;;24.30;38.43;100195.38;4485363;32;34641;-69
2023/10/10 14:16:22;;;;;;;16.70;8.20;;;;;;;24.25;38.60;100192.44;4479314;32;33360;-75
2023/10/10 14:18:50;;;;;;;17.85;8.10;;;;;;;24.19;38.67;100194.19;4482275;32;34569;-75
2023/10/10 14:21:25;;;;;;;19.83;8.75;;;;;;;24.16;38.74;100189.19;4475925;32;33249;-73
2023/10/10 14:23:59;;;;;;;16.50;7.97;;;;;;;24.11;38.84;100192.56;4482589;32;34625;-78
2023/10/10 14:26:30;;;;;;;18.55;8.40;;;;;;;24.08;38.87;100187.56;4475943;32;34352;-67
2023/10/10 14:29:04;;;;;;;15.75;7.65;;;;;;;24.07;38.85;100193.25;4477055;32;32828;-70
2023/10/10 14:31:33;;;;;;;16.05;7.25;;;;;;;24.05;38.92;100184.44;4483270;32;33995;-67
2023/10/10 14:34:02;;;;;;;18.50;7.72;;;;;;;24.03;38.95;100184.66;4482611;32;33983;-73
2023/10/10 14:36:30;;;;;;;21.20;7.15;;;;;;;24.00;38.98;100179.66;4463657;32;33380;-74
2023/10/10 14:38:58;;;;;;;18.23;7.18;;;;;;;23.98;39.07;100187.22;4455296;32;33932;-74
2023/10/10 14:41:32;;;;;;;12.45;6.90;;;;;;;23.97;39.14;100187.41;4469648;32;34522;-62
2023/10/10 14:44:00;;;;;;;14.10;6.75;;;;;;;23.95;39.18;100187.66;4462203;32;33798;-68
2023/10/10 14:46:33;;;;;;;10.10;6.45;;;;;;;23.93;39.19;100187.06;4461761;32;33398;-62